createdAt,value
2019-02-25T00:00:32.578Z,99.90
2019-02-25T00:03:02.797Z,99.90
2019-02-25T00:05:36.811Z,99.90
2019-02-25T00:08:07.646Z,99.90
2019-02-25T00:10:38.383Z,99.90
2019-02-25T00:13:09.847Z,99.90
2019-02-25T00:15:40.471Z,99.90
2019-02-25T00:18:11.492Z,99.90
2019-02-25T00:20:42.549Z,99.90
2019-02-25T00:23:13.183Z,99.90
2019-02-25T00:25:44.226Z,99.90
2019-02-25T00:28:17.723Z,99.90
2019-02-25T00:30:49.047Z,99.90
2019-02-25T00:33:21.374Z,99.90
2019-02-25T00:35:51.937Z,99.90
2019-02-25T00:38:22.894Z,99.90
2019-02-25T00:40:56.406Z,99.90
2019-02-25T00:43:26.908Z,99.90
2019-02-25T00:45:57.537Z,99.90
2019-02-25T00:48:30.519Z,99.90
2019-02-25T00:51:04.221Z,99.90
2019-02-25T00:53:34.929Z,99.90
2019-02-25T00:56:05.228Z,99.90
2019-02-25T00:58:35.248Z,99.90
2019-02-25T01:01:08.024Z,99.90
2019-02-25T01:03:38.461Z,99.90
2019-02-25T01:06:15.487Z,99.90
2019-02-25T01:08:48.349Z,99.90
2019-02-25T01:11:25.410Z,99.90
2019-02-25T01:14:01.460Z,99.90
2019-02-25T01:16:32.828Z,99.90
2019-02-25T01:19:04.988Z,99.90
2019-02-25T01:21:35.514Z,99.90
2019-02-25T01:24:06.808Z,99.90
2019-02-25T01:26:37.602Z,99.90
2019-02-25T01:29:08.436Z,99.90
2019-02-25T01:31:41.527Z,99.90
2019-02-25T01:34:14.661Z,99.90
2019-02-25T01:36:45.563Z,99.90
2019-02-25T01:39:16.402Z,99.90
2019-02-25T01:41:47.233Z,99.90
2019-02-25T01:44:17.723Z,99.90
2019-02-25T01:46:48.127Z,99.90
2019-02-25T01:49:26.810Z,99.90
2019-02-25T01:51:59.080Z,99.90
2019-02-25T01:54:29.610Z,99.90
2019-02-25T01:57:00.378Z,99.90
2019-02-25T01:59:31.346Z,99.90
2019-02-25T02:02:07.207Z,99.90
2019-02-25T02:04:38.894Z,99.90
2019-02-25T02:07:19.262Z,99.90
2019-02-25T02:09:51.132Z,99.90
2019-02-25T02:12:28.690Z,99.90
2019-02-25T02:14:59.849Z,99.90
2019-02-25T02:17:33.020Z,99.90
2019-02-25T02:20:04.305Z,99.90
2019-02-25T02:22:38.073Z,99.90
2019-02-25T02:25:10.089Z,99.90
2019-02-25T02:27:40.500Z,99.90
2019-02-25T02:30:18.013Z,99.90
2019-02-25T02:32:51.904Z,99.90
2019-02-25T02:35:22.213Z,99.90
2019-02-25T02:37:57.982Z,99.90
2019-02-25T02:40:28.820Z,99.90
2019-02-25T02:43:01.176Z,99.90
2019-02-25T02:45:41.448Z,99.90
2019-02-25T02:48:18.740Z,99.90
2019-02-25T02:50:49.711Z,99.90
2019-02-25T02:53:21.744Z,99.90
2019-02-25T02:55:51.785Z,99.90
2019-02-25T02:58:22.394Z,99.90
2019-02-25T03:00:53.648Z,99.90
2019-02-25T03:03:26.936Z,99.90
2019-02-25T03:06:01.360Z,99.90
2019-02-25T03:08:29.837Z,99.90
2019-02-25T03:11:03.136Z,99.90
2019-02-25T03:13:33.458Z,99.90
2019-02-25T03:16:07.154Z,99.90
2019-02-25T03:18:40.054Z,99.90
2019-02-25T03:21:12.015Z,99.90
2019-02-25T03:23:44.669Z,99.90
2019-02-25T03:26:15.500Z,99.90
2019-02-25T03:28:49.029Z,99.90
2019-02-25T03:31:23.583Z,99.90
2019-02-25T03:33:54.177Z,99.90
2019-02-25T03:36:27.669Z,99.90
2019-02-25T03:38:57.978Z,99.90
2019-02-25T03:41:32.103Z,99.90
2019-02-25T03:44:02.418Z,99.90
2019-02-25T03:46:33.156Z,99.90
2019-02-25T03:49:03.821Z,99.90
2019-02-25T03:51:38.461Z,99.90
2019-02-25T03:54:09.486Z,99.90
2019-02-25T03:56:39.064Z,99.90
2019-02-25T03:59:12.996Z,99.90
2019-02-25T04:01:43.387Z,99.90
2019-02-25T04:04:14.064Z,99.90
2019-02-25T04:06:47.201Z,99.90
2019-02-25T04:09:17.580Z,99.90
2019-02-25T04:11:48.226Z,99.90
2019-02-25T04:14:19.153Z,99.90
2019-02-25T04:16:52.862Z,99.90
2019-02-25T04:19:23.121Z,99.90
2019-02-25T04:21:54.844Z,99.90
2019-02-25T04:24:26.708Z,99.90
2019-02-25T04:27:01.227Z,99.90
2019-02-25T04:29:31.827Z,99.90
2019-02-25T04:32:02.382Z,99.90
2019-02-25T04:34:32.939Z,99.90
2019-02-25T04:37:10.547Z,99.90
2019-02-25T04:39:42.479Z,99.90
2019-02-25T04:42:16.591Z,99.90
2019-02-25T04:44:48.056Z,99.90
2019-02-25T04:47:18.789Z,99.90
2019-02-25T04:49:53.305Z,99.90
2019-02-25T04:52:23.855Z,99.90
2019-02-25T04:54:53.954Z,99.90
2019-02-25T04:57:26.193Z,99.90
2019-02-25T04:59:56.550Z,99.90
2019-02-25T05:02:33.119Z,99.90
2019-02-25T05:05:02.521Z,99.90
2019-02-25T05:07:32.645Z,99.90
2019-02-25T05:10:03.611Z,99.90
2019-02-25T05:12:37.146Z,99.90
2019-02-25T05:15:08.105Z,99.90
2019-02-25T05:17:45.996Z,99.90
2019-02-25T05:20:16.457Z,99.90
2019-02-25T05:22:50.289Z,99.90
2019-02-25T05:25:20.900Z,99.90
2019-02-25T05:27:51.445Z,99.90
2019-02-25T05:30:21.779Z,99.90
2019-02-25T05:32:51.427Z,99.90
2019-02-25T05:35:23.635Z,99.90
2019-02-25T05:37:53.643Z,99.90
2019-02-25T05:40:27.399Z,99.90
2019-02-25T05:42:58.036Z,99.90
2019-02-25T05:45:28.530Z,99.90
2019-02-25T05:47:58.569Z,99.90
2019-02-25T05:50:29.269Z,99.90
2019-02-25T05:53:00.800Z,99.90
2019-02-25T05:55:31.990Z,99.90
2019-02-25T05:58:05.052Z,99.90
2019-02-25T06:00:35.719Z,99.90
2019-02-25T06:03:06.126Z,99.90
2019-02-25T06:05:36.485Z,99.90
2019-02-25T06:08:09.497Z,99.90
2019-02-25T06:10:39.783Z,99.90
2019-02-25T06:13:12.873Z,99.90
2019-02-25T06:15:43.083Z,99.90
2019-02-25T06:18:15.454Z,99.90
2019-02-25T06:20:49.873Z,99.90
2019-02-25T06:23:21.929Z,99.90
2019-02-25T06:25:52.266Z,99.90
2019-02-25T06:28:21.780Z,99.90
2019-02-25T06:30:52.704Z,99.90
2019-02-25T06:33:22.341Z,99.90
2019-02-25T06:35:52.564Z,99.90
2019-02-25T06:38:22.327Z,99.90
2019-02-25T06:40:52.561Z,99.90
2019-02-25T06:43:22.272Z,99.90
2019-02-25T06:45:52.121Z,99.90
2019-02-25T06:48:22.010Z,99.90
2019-02-25T06:50:51.608Z,99.90
2019-02-25T06:53:21.742Z,99.90
2019-02-25T06:55:51.483Z,99.90
2019-02-25T06:58:22.983Z,99.90
2019-02-25T07:00:52.517Z,99.90
2019-02-25T07:03:22.083Z,99.90
2019-02-25T07:06:05.943Z,99.90
2019-02-25T07:08:57.747Z,99.90
2019-02-25T07:11:36.747Z,99.90
2019-02-25T07:14:31.162Z,99.90
2019-02-25T07:17:08.042Z,99.90
2019-02-25T07:19:56.528Z,99.90
2019-02-25T07:22:44.186Z,99.90
2019-02-25T07:25:31.979Z,99.90
2019-02-25T07:28:19.203Z,99.90
2019-02-25T07:30:59.964Z,99.90
2019-02-25T07:33:51.470Z,99.90
2019-02-25T07:36:38.988Z,99.90
2019-02-25T07:39:27.127Z,99.90
2019-02-25T07:42:15.887Z,99.90
2019-02-25T07:45:01.273Z,99.90
2019-02-25T07:48:05.282Z,99.90
2019-02-25T07:51:00.196Z,99.90
2019-02-25T07:53:52.204Z,99.90
2019-02-25T07:56:42.149Z,99.90
2019-02-25T07:59:18.242Z,99.90
2019-02-25T08:02:04.834Z,99.90
2019-02-25T08:04:56.865Z,99.90
2019-02-25T08:07:45.826Z,99.90
2019-02-25T08:10:33.040Z,99.90
2019-02-25T08:13:16.323Z,99.90
2019-02-25T08:16:17.308Z,99.90
2019-02-25T08:22:16.122Z,98.10
2019-02-25T08:24:54.964Z,96.50
2019-02-25T08:27:31.559Z,95.30
2019-02-25T08:30:29.586Z,93.40
2019-02-25T08:33:10.970Z,92.70
2019-02-25T08:36:42.523Z,93.00
2019-02-25T08:39:25.645Z,92.50
2019-02-25T08:42:01.811Z,90.60
2019-02-25T08:44:42.567Z,90.30
2019-02-25T08:47:36.240Z,88.70
2019-02-25T08:50:08.642Z,87.50
2019-02-25T08:52:38.340Z,88.80
2019-02-25T08:55:09.243Z,87.70
2019-02-25T08:57:39.004Z,84.80
2019-02-25T09:00:11.162Z,82.50
2019-02-25T09:02:40.920Z,82.10
2019-02-25T09:05:12.248Z,82.20
2019-02-25T09:07:42.879Z,79.90
2019-02-25T09:10:13.628Z,80.40
2019-02-25T09:12:43.205Z,79.30
2019-02-25T09:15:13.443Z,77.40
2019-02-25T09:17:45.036Z,76.60
2019-02-25T09:20:15.541Z,73.00
2019-02-25T09:22:45.295Z,73.90
2019-02-25T09:25:14.916Z,72.80
2019-02-25T09:31:15.239Z,68.10
2019-02-25T09:33:44.999Z,63.30
2019-02-25T09:36:14.637Z,60.20
2019-02-25T09:38:44.438Z,61.60
2019-02-25T09:41:17.039Z,60.50
2019-02-25T09:43:46.799Z,57.50
2019-02-25T09:46:16.441Z,57.40
2019-02-25T09:48:46.322Z,58.30
2019-02-25T09:51:15.988Z,54.50
2019-02-25T09:53:45.844Z,55.00
2019-02-25T09:56:15.481Z,55.80
2019-02-25T09:58:44.977Z,56.80
2019-02-25T10:01:14.762Z,55.10
2019-02-25T10:03:44.496Z,55.40
2019-02-25T10:06:14.041Z,52.80
2019-02-25T10:08:43.911Z,55.70
2019-02-25T10:11:13.517Z,55.10
2019-02-25T10:13:43.443Z,55.20
2019-02-25T10:16:13.036Z,51.90
2019-02-25T10:18:42.719Z,53.60
2019-02-25T10:21:12.454Z,52.00
2019-02-25T10:23:42.163Z,51.80
2019-02-25T10:26:11.880Z,50.80
2019-02-25T10:28:41.800Z,52.10
2019-02-25T10:31:13.046Z,51.10
2019-02-25T10:33:42.840Z,50.50
2019-02-25T10:36:12.601Z,52.90
2019-02-25T10:38:42.049Z,52.10
2019-02-25T10:41:11.858Z,52.90
2019-02-25T10:43:41.467Z,50.20
2019-02-25T10:46:13.479Z,48.30
2019-02-25T10:48:42.734Z,48.40
2019-02-25T10:51:13.695Z,46.40
2019-02-25T10:53:45.117Z,49.50
2019-02-25T10:56:21.737Z,47.90
2019-02-25T10:58:51.594Z,47.90
2019-02-25T11:01:22.345Z,46.40
2019-02-25T11:03:54.181Z,44.00
2019-02-25T11:06:25.168Z,42.40
2019-02-25T11:09:23.039Z,45.20
2019-02-25T11:11:54.736Z,46.10
2019-02-25T11:14:24.156Z,48.30
2019-02-25T11:16:54.122Z,45.70
2019-02-25T11:19:25.012Z,45.70
2019-02-25T11:21:55.529Z,44.90
2019-02-25T11:24:25.548Z,44.40
2019-02-25T11:26:56.796Z,45.70
2019-02-25T11:29:26.497Z,48.20
2019-02-25T11:31:56.097Z,46.40
2019-02-25T11:34:25.714Z,46.50
2019-02-25T11:36:57.289Z,47.70
2019-02-25T11:39:27.535Z,48.70
2019-02-25T11:41:58.438Z,44.90
2019-02-25T11:44:31.198Z,47.70
2019-02-25T11:46:59.402Z,45.90
2019-02-25T11:49:29.084Z,45.40
2019-02-25T11:51:58.801Z,46.30
2019-02-25T11:54:29.161Z,46.80
2019-02-25T11:56:58.616Z,46.10
2019-02-25T11:59:30.597Z,47.30
2019-02-25T12:01:59.878Z,45.70
2019-02-25T12:04:29.519Z,46.60
2019-02-25T12:06:59.277Z,46.40
2019-02-25T12:09:29.164Z,46.50
2019-02-25T12:11:59.021Z,46.40
2019-02-25T12:14:28.498Z,47.50
2019-02-25T12:16:58.022Z,47.40
2019-02-25T12:19:27.836Z,48.50
2019-02-25T12:21:57.481Z,47.00
2019-02-25T12:24:26.935Z,48.90
2019-02-25T12:26:56.638Z,47.50
2019-02-25T12:29:26.375Z,48.30
2019-02-25T12:31:56.045Z,47.80
2019-02-25T12:34:25.779Z,47.20
2019-02-25T12:36:55.593Z,48.30
2019-02-25T12:39:25.322Z,48.60
2019-02-25T12:41:55.563Z,48.50
2019-02-25T12:44:25.235Z,48.80
2019-02-25T12:46:54.957Z,50.00
2019-02-25T12:49:24.720Z,48.90
2019-02-25T12:51:54.353Z,48.40
2019-02-25T12:54:23.878Z,48.50
2019-02-25T12:56:53.760Z,46.50
2019-02-25T12:59:23.334Z,44.40
2019-02-25T13:01:53.194Z,46.00
2019-02-25T13:04:23.037Z,46.30
2019-02-25T13:06:52.605Z,47.50
2019-02-25T13:09:22.315Z,46.30
2019-02-25T13:11:52.025Z,46.80
2019-02-25T13:14:21.935Z,49.10
2019-02-25T13:16:51.962Z,47.10
2019-02-25T13:19:21.567Z,47.30
2019-02-25T13:21:51.477Z,45.90
2019-02-25T13:24:21.241Z,46.70
2019-02-25T13:26:51.055Z,45.30
2019-02-25T13:29:20.699Z,46.80
2019-02-25T13:31:50.157Z,45.80
2019-02-25T13:34:20.036Z,46.60
2019-02-25T13:36:51.359Z,47.10
2019-02-25T13:39:20.968Z,46.30
2019-02-25T13:41:50.755Z,43.60
2019-02-25T13:44:20.282Z,45.80
2019-02-25T13:46:50.157Z,44.80
2019-02-25T13:49:20.036Z,45.60
2019-02-25T13:51:50.277Z,45.80
2019-02-25T13:54:20.044Z,46.00
2019-02-25T13:56:49.929Z,47.50
2019-02-25T13:59:19.799Z,47.80
2019-02-25T14:01:52.806Z,48.40
2019-02-25T14:04:22.770Z,47.40
2019-02-25T14:06:52.679Z,47.10
2019-02-25T14:09:22.078Z,46.50
2019-02-25T14:11:51.790Z,47.40
2019-02-25T14:14:22.436Z,46.00
2019-02-25T14:16:52.198Z,48.00
2019-02-25T14:19:21.838Z,49.40
2019-02-25T14:21:51.721Z,50.00
2019-02-25T14:24:21.957Z,48.30
2019-02-25T14:26:51.474Z,48.50
2019-02-25T14:29:21.610Z,49.10
2019-02-25T14:31:51.236Z,48.10
2019-02-25T14:34:21.113Z,49.60
2019-02-25T14:36:52.479Z,49.00
2019-02-25T14:39:27.758Z,49.10
2019-02-25T14:41:58.871Z,48.80
2019-02-25T14:44:32.430Z,49.30
2019-02-25T14:47:02.614Z,48.90
2019-02-25T14:49:32.557Z,48.90
2019-02-25T14:52:01.797Z,48.40
2019-02-25T14:54:32.270Z,48.10
2019-02-25T14:57:03.339Z,49.00
2019-02-25T14:59:33.119Z,48.60
2019-02-25T15:02:04.016Z,49.50
2019-02-25T15:04:35.810Z,49.30
2019-02-25T15:07:06.963Z,48.60
2019-02-25T15:09:39.227Z,48.50
2019-02-25T15:12:11.680Z,49.40
2019-02-25T15:14:40.716Z,48.30
2019-02-25T15:17:12.649Z,48.90
2019-02-25T15:19:42.913Z,48.20
2019-02-25T15:22:12.818Z,48.70
2019-02-25T15:24:44.436Z,47.90
2019-02-25T15:27:14.280Z,49.30
2019-02-25T15:29:44.740Z,48.50
2019-02-25T15:32:15.538Z,47.80
2019-02-25T15:34:46.549Z,47.40
2019-02-25T15:37:16.674Z,48.10
2019-02-25T15:39:46.403Z,48.20
2019-02-25T15:42:17.241Z,47.70
2019-02-25T15:44:49.147Z,47.60
2019-02-25T15:47:18.718Z,47.80
2019-02-25T15:49:49.074Z,48.40
2019-02-25T15:52:20.879Z,48.30
2019-02-25T15:54:50.754Z,47.80
2019-02-25T15:57:20.646Z,47.30
2019-02-25T15:59:51.854Z,48.20
2019-02-25T16:02:21.562Z,47.20
2019-02-25T16:04:51.173Z,46.70
2019-02-25T16:07:23.704Z,47.30
2019-02-25T16:09:54.731Z,46.80
2019-02-25T16:12:26.857Z,47.30
2019-02-25T16:14:55.432Z,47.70
2019-02-25T16:17:25.036Z,48.70
2019-02-25T16:19:55.194Z,50.00
2019-02-25T16:22:26.146Z,49.00
2019-02-25T16:24:56.639Z,50.60
2019-02-25T16:27:27.390Z,49.60
2019-02-25T16:29:58.153Z,51.30
2019-02-25T16:32:28.799Z,50.60
2019-02-25T16:35:00.134Z,50.90
2019-02-25T16:37:31.626Z,50.80
2019-02-25T16:40:03.825Z,51.00
2019-02-25T16:42:34.687Z,51.30
2019-02-25T16:45:07.000Z,54.60
2019-02-25T16:47:37.762Z,52.50
2019-02-25T16:50:07.988Z,54.30
2019-02-25T16:52:40.623Z,55.20
2019-02-25T16:55:09.720Z,54.80
2019-02-25T16:57:41.061Z,56.10
2019-02-25T17:00:14.196Z,55.50
2019-02-25T17:02:44.864Z,54.40
2019-02-25T17:05:14.633Z,55.40
2019-02-25T17:07:45.098Z,55.30
2019-02-25T17:10:19.203Z,56.90
2019-02-25T17:12:50.100Z,58.20
2019-02-25T17:15:20.492Z,59.00
2019-02-25T17:17:52.512Z,57.70
2019-02-25T17:20:23.672Z,58.30
2019-02-25T17:22:54.249Z,59.20
2019-02-25T17:25:26.836Z,59.30
2019-02-25T17:27:56.039Z,59.60
2019-02-25T17:30:26.168Z,59.50
2019-02-25T17:32:56.925Z,58.10
2019-02-25T17:35:28.884Z,58.70
2019-02-25T17:38:00.400Z,60.10
2019-02-25T17:40:30.597Z,60.00
2019-02-25T17:43:00.714Z,60.60
2019-02-25T17:45:32.436Z,61.80
2019-02-25T17:48:05.440Z,62.50
2019-02-25T17:50:35.323Z,64.00
2019-02-25T17:53:07.205Z,62.60
2019-02-25T17:55:37.436Z,63.00
2019-02-25T17:58:08.831Z,62.20
2019-02-25T18:00:42.382Z,65.80
2019-02-25T18:03:12.240Z,68.00
2019-02-25T18:05:44.141Z,69.70
2019-02-25T18:08:15.368Z,69.50
2019-02-25T18:10:46.035Z,67.80
2019-02-25T18:13:17.633Z,67.40
2019-02-25T18:15:49.836Z,69.00
2019-02-25T18:18:21.840Z,70.40
2019-02-25T18:20:53.632Z,70.70
2019-02-25T18:23:24.103Z,73.00
2019-02-25T18:25:57.979Z,74.60
2019-02-25T18:28:26.903Z,74.70
2019-02-25T18:30:59.668Z,75.20
2019-02-25T18:33:29.453Z,76.10
2019-02-25T18:36:01.992Z,77.80
2019-02-25T18:38:32.401Z,80.20
2019-02-25T18:41:04.237Z,78.90
2019-02-25T18:43:34.316Z,78.90
2019-02-25T18:46:07.113Z,79.70
2019-02-25T18:48:36.836Z,81.40
2019-02-25T18:51:11.871Z,82.10
2019-02-25T18:53:39.719Z,83.20
2019-02-25T18:56:11.911Z,85.90
2019-02-25T18:58:42.231Z,85.40
2019-02-25T19:01:13.387Z,84.30
2019-02-25T19:03:44.407Z,83.10
2019-02-25T19:06:17.085Z,86.40
2019-02-25T19:08:47.335Z,87.60
2019-02-25T19:11:20.971Z,87.70
2019-02-25T19:14:03.170Z,90.00
2019-02-25T19:16:32.633Z,90.30
2019-02-25T19:19:04.013Z,91.30
2019-02-25T19:21:35.304Z,92.20
2019-02-25T19:24:07.321Z,92.80
2019-02-25T19:26:38.249Z,93.50
2019-02-25T19:29:09.606Z,94.10
2019-02-25T19:31:42.506Z,94.30
2019-02-25T19:34:15.545Z,94.80
2019-02-25T19:36:43.830Z,95.80
2019-02-25T19:39:16.838Z,96.30
2019-02-25T19:41:49.157Z,96.40
2019-02-25T19:44:21.151Z,95.70
2019-02-25T19:46:53.845Z,94.90
2019-02-25T19:49:24.578Z,94.60
2019-02-25T19:51:54.835Z,95.20
2019-02-25T19:54:25.089Z,96.40
2019-02-25T19:56:57.886Z,97.20
2019-02-25T19:59:29.141Z,97.90
2019-02-25T20:01:59.656Z,99.60
2019-02-25T20:04:33.470Z,99.90
2019-02-25T20:07:01.795Z,99.90
2019-02-25T20:09:32.635Z,99.90
2019-02-25T20:12:03.295Z,99.90
2019-02-25T20:14:33.874Z,99.90
2019-02-25T20:17:04.196Z,99.90
2019-02-25T20:19:34.630Z,99.90
2019-02-25T20:22:04.912Z,99.90
2019-02-25T20:24:39.806Z,99.90
2019-02-25T20:27:07.852Z,99.90
2019-02-25T20:29:38.721Z,99.90
2019-02-25T20:32:16.441Z,99.90
2019-02-25T20:34:49.959Z,99.90
2019-02-25T20:37:22.761Z,99.90
2019-02-25T20:39:51.235Z,99.90
2019-02-25T20:42:22.325Z,99.90
2019-02-25T20:44:55.100Z,99.90
2019-02-25T20:47:24.731Z,99.90
2019-02-25T20:49:56.066Z,99.90
2019-02-25T20:52:26.876Z,99.90
2019-02-25T20:54:57.232Z,99.90
2019-02-25T20:57:27.409Z,99.90
2019-02-25T20:59:57.942Z,99.90
2019-02-25T21:02:28.204Z,99.90
2019-02-25T21:04:58.466Z,99.90
2019-02-25T21:07:29.717Z,99.90
2019-02-25T21:10:00.989Z,99.90
2019-02-25T21:12:32.133Z,99.90
2019-02-25T21:15:02.530Z,99.90
2019-02-25T21:17:33.215Z,99.90
2019-02-25T21:20:07.079Z,99.90
2019-02-25T21:22:38.606Z,99.90
2019-02-25T21:25:10.301Z,99.90
2019-02-25T21:27:41.241Z,99.90
2019-02-25T21:30:14.480Z,99.90
2019-02-25T21:32:45.650Z,99.90
2019-02-25T21:35:17.050Z,99.90
2019-02-25T21:37:48.300Z,99.90
2019-02-25T21:40:20.038Z,99.90
2019-02-25T21:42:51.429Z,99.90
2019-02-25T21:45:24.523Z,99.90
2019-02-25T21:47:56.677Z,99.90
2019-02-25T21:50:28.431Z,99.90
2019-02-25T21:52:57.445Z,99.90
2019-02-25T21:55:28.559Z,99.90
2019-02-25T21:58:00.832Z,99.90
2019-02-25T22:00:32.902Z,99.90
2019-02-25T22:03:06.012Z,99.90
2019-02-25T22:05:35.186Z,99.90
2019-02-25T22:08:06.492Z,99.90
2019-02-25T22:10:39.344Z,99.90
2019-02-25T22:13:11.245Z,99.90
2019-02-25T22:15:42.997Z,99.90
2019-02-25T22:18:14.140Z,99.90
2019-02-25T22:20:47.059Z,99.90
2019-02-25T22:23:16.683Z,99.90
2019-02-25T22:25:47.207Z,99.90
2019-02-25T22:28:17.641Z,99.90
2019-02-25T22:30:49.630Z,99.90
2019-02-25T22:33:27.438Z,99.90
2019-02-25T22:35:51.928Z,99.90
2019-02-25T22:38:22.520Z,99.90
2019-02-25T22:40:53.722Z,99.90
2019-02-25T22:43:24.613Z,99.90
2019-02-25T22:45:58.106Z,99.90
2019-02-25T22:48:27.388Z,99.90
2019-02-25T22:50:59.690Z,99.90
2019-02-25T22:53:29.387Z,99.90
2019-02-25T22:55:59.787Z,99.90
2019-02-25T22:58:31.581Z,99.90
2019-02-25T23:01:18.190Z,99.90
2019-02-25T23:03:52.151Z,99.90
2019-02-25T23:06:23.078Z,99.90
2019-02-25T23:08:55.352Z,99.90
2019-02-25T23:11:26.111Z,99.90
2019-02-25T23:13:56.567Z,99.90
2019-02-25T23:16:26.791Z,99.90
2019-02-25T23:18:57.128Z,99.90
2019-02-25T23:21:30.805Z,99.90
2019-02-25T23:24:01.200Z,99.90
2019-02-25T23:26:31.535Z,99.90
2019-02-25T23:29:01.897Z,99.90
2019-02-25T23:31:32.336Z,99.90
2019-02-25T23:34:02.849Z,99.90
2019-02-25T23:36:33.285Z,99.90
2019-02-25T23:39:03.766Z,99.90
2019-02-25T23:41:36.257Z,99.90
2019-02-25T23:44:07.140Z,99.90
2019-02-25T23:46:40.045Z,99.90
2019-02-25T23:49:10.756Z,99.90
2019-02-25T23:51:41.689Z,99.90
2019-02-25T23:54:16.020Z,99.90
2019-02-25T23:56:49.879Z,99.90
2019-02-25T23:59:22.028Z,99.90
